Aitkin, MN

2:14 AM CDT on April 28, 2017 (GMT -0500)
Aitkin Municipal / Steve Kurtz Field | | Change Station

Elev 1204 ft 46.55 °N, 93.68 °W | Updated 20 minutes ago

Overcast
Overcast
32 °F
Feels Like 29 °F
N
4
Wind Variable Wind from WNW

Today
High -- | Low -- °F
--% Chance of Precip.
Yesterday
High -- | Low -- °F
Precip. -- in
Pressure 29.72 in
Visibility 10.0 miles
Clouds Scattered Clouds 2200 ft
Overcast 3000 ft
Windchill 29 °F
Dew Point 25 °F
Humidity 75%
Rainfall 0.00 in
Snow Depth Not available.
6:04 AM 8:20 PM
Waxing Crescent, 5% visible
METAR KAIT 280654Z AUTO 29003KT 10SM SCT022 OVC030 00/M04 A2972 RMK AO2
Pressure 29.72 in
Visibility 10.0 miles
Clouds Scattered Clouds 2200 ft
Overcast 3000 ft
Windchill 29 °F
Dew Point 25 °F
Humidity 75%
Rainfall 0.00 in
Snow Depth Not available.
6:04 AM 8:20 PM
Waxing Crescent, 5% visible
METAR KAIT 280654Z AUTO 29003KT 10SM SCT022 OVC030 00/M04 A2972 RMK AO2

Get Severe Weather Alerts

Thanks for signing up!

Be on the lookout for a verification email in your inbox.

You'll start receiving the daily forecast at 8 AM.

×

10-Day Weather Forecast

Almanac

Astronomy

Apr. 28, 2017 Rise Set
Actual Time
Civil Twilight
Nautical Twilight
Astronomical Twilight
Moon
Length of Visible Light
Length of Day
Tomorrow will be .
, % of the Moon is Illuminated

Today's Extremes

State Highs State Lows

Community

WunderPhotos

WunderBlog® & News

Nearby

Air Quality

  Air Quality AQ Index Pollutant
Not available.

Snow Depth

Station Depth Elevation

Earthquake Activity

City Distance Mag. Time & Date
Minimum magnitude displayed is 2.5.

Coastal Water Temperatures

Place Temperature

Stations

Nearby Weather Stations

Station Location Temp. Windchill Dew Point Humidity Wind Precip. Elev Updated Type
                   

Watches & Warnings

There are currently no watches in effect.